sensor_id;sensor_type;location;lat;lon;timestamp;P1;durP1;ratioP1;P2;durP2;ratioP2
19358;SDS011;9815;52.334;20.890;2022-12-16T00:02:00;81.37;;;31.23;;
19358;SDS011;9815;52.334;20.890;2022-12-16T00:04:28;83.77;;;29.93;;
19358;SDS011;9815;52.334;20.890;2022-12-16T00:06:56;79.00;;;30.47;;
19358;SDS011;9815;52.334;20.890;2022-12-16T00:09:24;84.47;;;30.83;;
19358;SDS011;9815;52.334;20.890;2022-12-16T00:11:52;77.73;;;30.27;;
19358;SDS011;9815;52.334;20.890;2022-12-16T00:14:20;77.73;;;29.33;;
19358;SDS011;9815;52.334;20.890;2022-12-16T00:16:48;79.13;;;29.03;;
19358;SDS011;9815;52.334;20.890;2022-12-16T00:19:17;84.13;;;30.30;;
19358;SDS011;9815;52.334;20.890;2022-12-16T00:21:45;79.63;;;29.53;;
19358;SDS011;9815;52.334;20.890;2022-12-16T00:24:13;69.67;;;29.17;;
19358;SDS011;9815;52.334;20.890;2022-12-16T00:26:41;70.10;;;27.67;;
19358;SDS011;9815;52.334;20.890;2022-12-16T00:29:09;79.50;;;29.47;;
19358;SDS011;9815;52.334;20.890;2022-12-16T00:31:37;77.50;;;30.07;;
19358;SDS011;9815;52.334;20.890;2022-12-16T00:34:05;74.97;;;29.13;;
19358;SDS011;9815;52.334;20.890;2022-12-16T00:36:34;84.80;;;28.53;;
19358;SDS011;9815;52.334;20.890;2022-12-16T00:39:02;75.90;;;28.20;;
19358;SDS011;9815;52.334;20.890;2022-12-16T00:41:30;74.60;;;28.57;;
19358;SDS011;9815;52.334;20.890;2022-12-16T00:43:59;76.30;;;26.87;;
19358;SDS011;9815;52.334;20.890;2022-12-16T00:46:27;71.17;;;25.40;;
19358;SDS011;9815;52.334;20.890;2022-12-16T00:48:55;70.73;;;26.23;;
19358;SDS011;9815;52.334;20.890;2022-12-16T00:51:22;72.43;;;26.80;;
19358;SDS011;9815;52.334;20.890;2022-12-16T00:53:52;63.93;;;24.80;;
19358;SDS011;9815;52.334;20.890;2022-12-16T00:56:20;71.83;;;26.60;;
19358;SDS011;9815;52.334;20.890;2022-12-16T00:58:48;67.63;;;26.27;;
19358;SDS011;9815;52.334;20.890;2022-12-16T01:01:16;70.03;;;26.00;;
19358;SDS011;9815;52.334;20.890;2022-12-16T01:03:44;68.87;;;25.30;;
19358;SDS011;9815;52.334;20.890;2022-12-16T01:06:13;66.70;;;25.17;;
19358;SDS011;9815;52.334;20.890;2022-12-16T01:08:42;67.17;;;24.27;;
19358;SDS011;9815;52.334;20.890;2022-12-16T01:11:15;68.23;;;24.77;;
19358;SDS011;9815;52.334;20.890;2022-12-16T01:13:45;69.93;;;25.40;;
19358;SDS011;9815;52.334;20.890;2022-12-16T01:16:17;77.80;;;26.70;;
19358;SDS011;9815;52.334;20.890;2022-12-16T01:18:45;74.37;;;26.57;;
19358;SDS011;9815;52.334;20.890;2022-12-16T01:21:13;71.27;;;26.90;;
19358;SDS011;9815;52.334;20.890;2022-12-16T01:23:42;69.33;;;26.30;;
19358;SDS011;9815;52.334;20.890;2022-12-16T01:26:11;68.50;;;26.00;;
19358;SDS011;9815;52.334;20.890;2022-12-16T01:28:44;75.27;;;28.40;;
19358;SDS011;9815;52.334;20.890;2022-12-16T01:31:14;73.20;;;26.60;;
19358;SDS011;9815;52.334;20.890;2022-12-16T01:33:44;80.80;;;29.30;;
19358;SDS011;9815;52.334;20.890;2022-12-16T01:36:12;76.67;;;27.07;;
19358;SDS011;9815;52.334;20.890;2022-12-16T01:38:40;68.63;;;27.10;;
19358;SDS011;9815;52.334;20.890;2022-12-16T01:41:09;69.33;;;25.57;;
19358;SDS011;9815;52.334;20.890;2022-12-16T01:43:39;77.27;;;25.73;;
19358;SDS011;9815;52.334;20.890;2022-12-16T01:46:08;71.57;;;25.87;;
19358;SDS011;9815;52.334;20.890;2022-12-16T01:48:43;74.23;;;26.87;;
19358;SDS011;9815;52.334;20.890;2022-12-16T01:51:15;72.30;;;26.83;;
19358;SDS011;9815;52.334;20.890;2022-12-16T01:53:51;72.33;;;26.73;;
19358;SDS011;9815;52.334;20.890;2022-12-16T01:56:24;68.47;;;25.70;;
19358;SDS011;9815;52.334;20.890;2022-12-16T01:58:56;68.37;;;25.10;;
19358;SDS011;9815;52.334;20.890;2022-12-16T02:01:25;74.63;;;26.53;;
19358;SDS011;9815;52.334;20.890;2022-12-16T02:03:53;71.50;;;25.83;;
19358;SDS011;9815;52.334;20.890;2022-12-16T02:06:23;66.37;;;24.90;;
19358;SDS011;9815;52.334;20.890;2022-12-16T02:08:53;77.40;;;26.87;;
19358;SDS011;9815;52.334;20.890;2022-12-16T02:11:26;67.80;;;23.90;;
19358;SDS011;9815;52.334;20.890;2022-12-16T02:14:11;73.07;;;25.80;;
19358;SDS011;9815;52.334;20.890;2022-12-16T02:16:51;72.40;;;25.00;;
19358;SDS011;9815;52.334;20.890;2022-12-16T02:22:33;66.77;;;24.80;;
19358;SDS011;9815;52.334;20.890;2022-12-16T02:28:22;75.07;;;24.73;;
19358;SDS011;9815;52.334;20.890;2022-12-16T02:31:14;72.80;;;24.73;;
19358;SDS011;9815;52.334;20.890;2022-12-16T02:33:58;67.20;;;24.27;;
19358;SDS011;9815;52.334;20.890;2022-12-16T02:36:41;67.53;;;25.40;;
19358;SDS011;9815;52.334;20.890;2022-12-16T02:39:18;72.83;;;24.53;;
19358;SDS011;9815;52.334;20.890;2022-12-16T02:41:50;69.93;;;26.23;;
19358;SDS011;9815;52.334;20.890;2022-12-16T02:44:25;70.67;;;25.57;;
19358;SDS011;9815;52.334;20.890;2022-12-16T02:47:07;70.33;;;26.97;;
19358;SDS011;9815;52.334;20.890;2022-12-16T02:49:45;79.50;;;25.03;;
19358;SDS011;9815;52.334;20.890;2022-12-16T02:52:16;76.20;;;27.50;;
19358;SDS011;9815;52.334;20.890;2022-12-16T02:54:47;74.87;;;26.13;;
19358;SDS011;9815;52.334;20.890;2022-12-16T02:57:22;73.50;;;26.00;;
19358;SDS011;9815;52.334;20.890;2022-12-16T03:00:05;68.80;;;25.77;;
19358;SDS011;9815;52.334;20.890;2022-12-16T03:02:41;77.80;;;26.13;;
19358;SDS011;9815;52.334;20.890;2022-12-16T03:05:17;64.10;;;24.93;;
19358;SDS011;9815;52.334;20.890;2022-12-16T03:07:48;72.27;;;25.63;;
19358;SDS011;9815;52.334;20.890;2022-12-16T03:10:20;68.70;;;25.67;;
19358;SDS011;9815;52.334;20.890;2022-12-16T03:12:54;66.10;;;24.87;;
19358;SDS011;9815;52.334;20.890;2022-12-16T03:15:24;64.33;;;24.37;;
19358;SDS011;9815;52.334;20.890;2022-12-16T03:17:56;64.47;;;24.30;;
19358;SDS011;9815;52.334;20.890;2022-12-16T03:20:26;62.50;;;25.00;;
19358;SDS011;9815;52.334;20.890;2022-12-16T03:22:59;72.30;;;24.77;;
19358;SDS011;9815;52.334;20.890;2022-12-16T03:25:32;68.67;;;24.97;;
19358;SDS011;9815;52.334;20.890;2022-12-16T03:28:05;65.63;;;23.87;;
19358;SDS011;9815;52.334;20.890;2022-12-16T03:30:41;67.50;;;26.10;;
19358;SDS011;9815;52.334;20.890;2022-12-16T03:33:17;64.33;;;23.50;;
19358;SDS011;9815;52.334;20.890;2022-12-16T03:35:52;75.07;;;24.03;;
19358;SDS011;9815;52.334;20.890;2022-12-16T03:38:25;62.77;;;23.83;;
19358;SDS011;9815;52.334;20.890;2022-12-16T03:40:54;69.83;;;24.63;;
19358;SDS011;9815;52.334;20.890;2022-12-16T03:43:24;76.07;;;24.90;;
19358;SDS011;9815;52.334;20.890;2022-12-16T03:45:53;72.23;;;23.50;;
19358;SDS011;9815;52.334;20.890;2022-12-16T03:48:26;72.30;;;24.40;;
19358;SDS011;9815;52.334;20.890;2022-12-16T03:50:54;61.77;;;24.17;;
19358;SDS011;9815;52.334;20.890;2022-12-16T03:53:22;74.77;;;25.57;;
19358;SDS011;9815;52.334;20.890;2022-12-16T03:55:52;61.27;;;23.47;;
19358;SDS011;9815;52.334;20.890;2022-12-16T03:58:20;69.90;;;23.70;;
19358;SDS011;9815;52.334;20.890;2022-12-16T04:00:48;71.43;;;24.20;;
19358;SDS011;9815;52.334;20.890;2022-12-16T04:03:16;73.23;;;23.83;;
19358;SDS011;9815;52.334;20.890;2022-12-16T04:05:49;69.77;;;23.27;;
19358;SDS011;9815;52.334;20.890;2022-12-16T04:08:17;70.83;;;24.47;;
19358;SDS011;9815;52.334;20.890;2022-12-16T04:10:45;62.83;;;22.73;;
19358;SDS011;9815;52.334;20.890;2022-12-16T04:13:36;55.63;;;22.27;;
19358;SDS011;9815;52.334;20.890;2022-12-16T04:16:22;60.60;;;22.20;;
19358;SDS011;9815;52.334;20.890;2022-12-16T04:19:10;66.00;;;23.47;;
19358;SDS011;9815;52.334;20.890;2022-12-16T04:22:04;61.43;;;22.27;;
19358;SDS011;9815;52.334;20.890;2022-12-16T04:24:56;66.57;;;23.53;;
19358;SDS011;9815;52.334;20.890;2022-12-16T04:27:28;74.57;;;23.03;;
19358;SDS011;9815;52.334;20.890;2022-12-16T04:29:56;66.93;;;23.90;;
19358;SDS011;9815;52.334;20.890;2022-12-16T04:32:41;64.47;;;23.37;;
19358;SDS011;9815;52.334;20.890;2022-12-16T04:35:26;66.50;;;23.57;;
19358;SDS011;9815;52.334;20.890;2022-12-16T04:38:14;62.63;;;23.20;;
19358;SDS011;9815;52.334;20.890;2022-12-16T04:41:00;57.10;;;21.77;;
19358;SDS011;9815;52.334;20.890;2022-12-16T04:43:47;71.43;;;23.13;;
19358;SDS011;9815;52.334;20.890;2022-12-16T04:46:33;65.37;;;22.13;;
19358;SDS011;9815;52.334;20.890;2022-12-16T04:49:18;65.70;;;21.90;;
19358;SDS011;9815;52.334;20.890;2022-12-16T04:52:04;72.17;;;22.90;;
19358;SDS011;9815;52.334;20.890;2022-12-16T04:54:51;74.03;;;24.83;;
19358;SDS011;9815;52.334;20.890;2022-12-16T04:57:36;68.03;;;23.97;;
19358;SDS011;9815;52.334;20.890;2022-12-16T05:00:22;68.63;;;23.53;;
19358;SDS011;9815;52.334;20.890;2022-12-16T05:03:07;69.97;;;23.80;;
19358;SDS011;9815;52.334;20.890;2022-12-16T05:05:53;69.33;;;24.13;;
19358;SDS011;9815;52.334;20.890;2022-12-16T05:08:39;72.50;;;24.10;;
19358;SDS011;9815;52.334;20.890;2022-12-16T05:11:25;67.83;;;24.43;;
19358;SDS011;9815;52.334;20.890;2022-12-16T05:14:11;59.47;;;22.87;;
19358;SDS011;9815;52.334;20.890;2022-12-16T05:16:57;68.90;;;23.53;;
19358;SDS011;9815;52.334;20.890;2022-12-16T05:19:42;65.37;;;24.13;;
19358;SDS011;9815;52.334;20.890;2022-12-16T05:22:27;64.00;;;23.07;;
19358;SDS011;9815;52.334;20.890;2022-12-16T05:25:13;70.77;;;25.80;;
19358;SDS011;9815;52.334;20.890;2022-12-16T05:28:02;73.77;;;25.47;;
19358;SDS011;9815;52.334;20.890;2022-12-16T05:30:48;61.30;;;24.23;;
19358;SDS011;9815;52.334;20.890;2022-12-16T05:33:34;68.27;;;22.80;;
19358;SDS011;9815;52.334;20.890;2022-12-16T05:36:20;75.20;;;24.33;;
19358;SDS011;9815;52.334;20.890;2022-12-16T05:39:05;74.97;;;24.97;;
19358;SDS011;9815;52.334;20.890;2022-12-16T05:41:51;71.47;;;24.30;;
19358;SDS011;9815;52.334;20.890;2022-12-16T05:44:38;72.90;;;24.40;;
19358;SDS011;9815;52.334;20.890;2022-12-16T05:47:23;67.80;;;24.70;;
19358;SDS011;9815;52.334;20.890;2022-12-16T05:50:09;72.83;;;25.37;;
19358;SDS011;9815;52.334;20.890;2022-12-16T05:53:06;64.63;;;23.60;;
19358;SDS011;9815;52.334;20.890;2022-12-16T05:55:52;77.43;;;23.30;;
19358;SDS011;9815;52.334;20.890;2022-12-16T05:58:37;77.13;;;25.47;;
19358;SDS011;9815;52.334;20.890;2022-12-16T06:01:24;68.07;;;23.40;;
19358;SDS011;9815;52.334;20.890;2022-12-16T06:04:10;70.20;;;23.90;;
19358;SDS011;9815;52.334;20.890;2022-12-16T06:06:55;72.53;;;25.53;;
19358;SDS011;9815;52.334;20.890;2022-12-16T06:09:41;71.43;;;23.53;;
19358;SDS011;9815;52.334;20.890;2022-12-16T06:12:27;59.90;;;22.07;;
19358;SDS011;9815;52.334;20.890;2022-12-16T06:15:12;68.60;;;23.47;;
19358;SDS011;9815;52.334;20.890;2022-12-16T06:18:02;75.07;;;24.47;;
19358;SDS011;9815;52.334;20.890;2022-12-16T06:20:48;75.37;;;24.23;;
19358;SDS011;9815;52.334;20.890;2022-12-16T06:23:34;67.53;;;26.10;;
19358;SDS011;9815;52.334;20.890;2022-12-16T06:26:19;69.80;;;24.10;;
19358;SDS011;9815;52.334;20.890;2022-12-16T06:29:06;83.70;;;25.90;;
19358;SDS011;9815;52.334;20.890;2022-12-16T06:31:53;77.67;;;25.20;;
19358;SDS011;9815;52.334;20.890;2022-12-16T06:34:40;65.40;;;24.40;;
19358;SDS011;9815;52.334;20.890;2022-12-16T06:37:25;72.87;;;24.93;;
19358;SDS011;9815;52.334;20.890;2022-12-16T06:40:10;76.87;;;25.73;;
19358;SDS011;9815;52.334;20.890;2022-12-16T06:42:56;66.40;;;22.87;;
19358;SDS011;9815;52.334;20.890;2022-12-16T06:45:41;71.83;;;23.60;;
19358;SDS011;9815;52.334;20.890;2022-12-16T06:48:26;68.87;;;25.07;;
19358;SDS011;9815;52.334;20.890;2022-12-16T06:51:13;66.90;;;23.47;;
19358;SDS011;9815;52.334;20.890;2022-12-16T06:53:59;76.50;;;25.33;;
19358;SDS011;9815;52.334;20.890;2022-12-16T06:56:44;74.73;;;25.70;;
19358;SDS011;9815;52.334;20.890;2022-12-16T06:59:30;79.43;;;25.83;;
19358;SDS011;9815;52.334;20.890;2022-12-16T07:02:15;71.17;;;23.87;;
19358;SDS011;9815;52.334;20.890;2022-12-16T07:05:01;74.10;;;23.10;;
19358;SDS011;9815;52.334;20.890;2022-12-16T07:07:48;69.90;;;24.93;;
19358;SDS011;9815;52.334;20.890;2022-12-16T07:10:35;80.13;;;24.43;;
19358;SDS011;9815;52.334;20.890;2022-12-16T07:13:34;71.77;;;24.27;;
19358;SDS011;9815;52.334;20.890;2022-12-16T07:16:19;67.83;;;24.80;;
19358;SDS011;9815;52.334;20.890;2022-12-16T07:19:05;82.63;;;26.20;;
19358;SDS011;9815;52.334;20.890;2022-12-16T07:21:50;64.40;;;23.53;;
19358;SDS011;9815;52.334;20.890;2022-12-16T07:24:37;64.53;;;25.20;;
19358;SDS011;9815;52.334;20.890;2022-12-16T07:27:22;83.00;;;25.87;;
19358;SDS011;9815;52.334;20.890;2022-12-16T07:30:08;70.40;;;23.30;;
19358;SDS011;9815;52.334;20.890;2022-12-16T07:32:54;52.23;;;20.80;;
19358;SDS011;9815;52.334;20.890;2022-12-16T07:35:41;70.57;;;24.53;;
19358;SDS011;9815;52.334;20.890;2022-12-16T07:38:27;90.73;;;27.40;;
19358;SDS011;9815;52.334;20.890;2022-12-16T07:41:13;90.20;;;30.87;;
19358;SDS011;9815;52.334;20.890;2022-12-16T07:44:07;76.50;;;24.30;;
19358;SDS011;9815;52.334;20.890;2022-12-16T07:46:53;71.03;;;24.80;;
19358;SDS011;9815;52.334;20.890;2022-12-16T07:49:38;74.47;;;24.53;;
19358;SDS011;9815;52.334;20.890;2022-12-16T07:52:24;74.57;;;23.43;;
19358;SDS011;9815;52.334;20.890;2022-12-16T07:55:09;73.43;;;24.67;;
19358;SDS011;9815;52.334;20.890;2022-12-16T07:57:56;67.23;;;25.37;;
19358;SDS011;9815;52.334;20.890;2022-12-16T08:00:41;69.33;;;26.10;;
19358;SDS011;9815;52.334;20.890;2022-12-16T08:03:34;76.47;;;25.43;;
19358;SDS011;9815;52.334;20.890;2022-12-16T08:06:21;76.43;;;24.90;;
19358;SDS011;9815;52.334;20.890;2022-12-16T08:09:06;71.93;;;25.03;;
19358;SDS011;9815;52.334;20.890;2022-12-16T08:11:52;79.70;;;24.77;;
19358;SDS011;9815;52.334;20.890;2022-12-16T08:14:39;72.73;;;24.50;;
19358;SDS011;9815;52.334;20.890;2022-12-16T08:17:24;71.60;;;23.70;;
19358;SDS011;9815;52.334;20.890;2022-12-16T08:20:10;68.23;;;24.73;;
19358;SDS011;9815;52.334;20.890;2022-12-16T08:22:55;70.20;;;23.50;;
19358;SDS011;9815;52.334;20.890;2022-12-16T08:25:41;72.50;;;25.43;;
19358;SDS011;9815;52.334;20.890;2022-12-16T08:28:26;80.70;;;26.17;;
19358;SDS011;9815;52.334;20.890;2022-12-16T08:31:13;67.63;;;24.83;;
19358;SDS011;9815;52.334;20.890;2022-12-16T08:33:59;71.57;;;25.27;;
19358;SDS011;9815;52.334;20.890;2022-12-16T08:36:44;78.60;;;25.67;;
19358;SDS011;9815;52.334;20.890;2022-12-16T08:39:30;66.40;;;19.83;;
19358;SDS011;9815;52.334;20.890;2022-12-16T08:42:35;70.50;;;26.27;;
19358;SDS011;9815;52.334;20.890;2022-12-16T08:45:21;82.30;;;25.70;;
19358;SDS011;9815;52.334;20.890;2022-12-16T08:48:09;70.70;;;25.83;;
19358;SDS011;9815;52.334;20.890;2022-12-16T08:50:54;84.73;;;28.40;;
19358;SDS011;9815;52.334;20.890;2022-12-16T08:53:40;75.57;;;26.43;;
19358;SDS011;9815;52.334;20.890;2022-12-16T08:56:26;77.83;;;26.97;;
19358;SDS011;9815;52.334;20.890;2022-12-16T08:59:21;73.93;;;25.83;;
19358;SDS011;9815;52.334;20.890;2022-12-16T09:02:07;70.93;;;24.50;;
19358;SDS011;9815;52.334;20.890;2022-12-16T09:04:55;80.90;;;26.30;;
19358;SDS011;9815;52.334;20.890;2022-12-16T09:07:43;77.03;;;27.30;;
19358;SDS011;9815;52.334;20.890;2022-12-16T09:10:28;75.17;;;26.10;;
19358;SDS011;9815;52.334;20.890;2022-12-16T09:13:14;74.33;;;26.43;;
19358;SDS011;9815;52.334;20.890;2022-12-16T09:16:01;67.43;;;25.23;;
19358;SDS011;9815;52.334;20.890;2022-12-16T09:18:46;71.67;;;26.50;;
19358;SDS011;9815;52.334;20.890;2022-12-16T09:21:33;87.50;;;28.87;;
19358;SDS011;9815;52.334;20.890;2022-12-16T09:24:20;74.23;;;25.27;;
19358;SDS011;9815;52.334;20.890;2022-12-16T09:27:05;69.83;;;25.87;;
19358;SDS011;9815;52.334;20.890;2022-12-16T09:29:53;73.63;;;25.40;;
19358;SDS011;9815;52.334;20.890;2022-12-16T09:32:39;76.83;;;26.30;;
19358;SDS011;9815;52.334;20.890;2022-12-16T09:35:25;77.60;;;26.43;;
19358;SDS011;9815;52.334;20.890;2022-12-16T09:38:12;90.63;;;31.47;;
19358;SDS011;9815;52.334;20.890;2022-12-16T09:40:59;89.60;;;30.93;;
19358;SDS011;9815;52.334;20.890;2022-12-16T09:44:09;77.50;;;26.70;;
19358;SDS011;9815;52.334;20.890;2022-12-16T09:47:05;71.60;;;25.73;;
19358;SDS011;9815;52.334;20.890;2022-12-16T09:50:01;72.83;;;25.77;;
19358;SDS011;9815;52.334;20.890;2022-12-16T09:52:49;81.03;;;26.70;;
19358;SDS011;9815;52.334;20.890;2022-12-16T09:55:41;79.03;;;28.87;;
19358;SDS011;9815;52.334;20.890;2022-12-16T09:58:29;76.43;;;28.53;;
19358;SDS011;9815;52.334;20.890;2022-12-16T10:01:20;79.93;;;26.83;;
19358;SDS011;9815;52.334;20.890;2022-12-16T10:04:06;74.67;;;26.87;;
19358;SDS011;9815;52.334;20.890;2022-12-16T10:06:52;81.27;;;26.80;;
19358;SDS011;9815;52.334;20.890;2022-12-16T10:09:46;78.50;;;27.47;;
19358;SDS011;9815;52.334;20.890;2022-12-16T10:12:42;75.00;;;25.63;;
19358;SDS011;9815;52.334;20.890;2022-12-16T10:15:37;69.03;;;25.60;;
19358;SDS011;9815;52.334;20.890;2022-12-16T10:18:33;64.50;;;25.53;;
19358;SDS011;9815;52.334;20.890;2022-12-16T10:21:29;70.67;;;25.17;;
19358;SDS011;9815;52.334;20.890;2022-12-16T10:24:22;60.07;;;23.90;;
19358;SDS011;9815;52.334;20.890;2022-12-16T10:27:18;78.23;;;26.93;;
19358;SDS011;9815;52.334;20.890;2022-12-16T10:30:12;75.87;;;26.53;;
19358;SDS011;9815;52.334;20.890;2022-12-16T10:33:03;78.17;;;26.77;;
19358;SDS011;9815;52.334;20.890;2022-12-16T10:35:53;74.90;;;25.93;;
19358;SDS011;9815;52.334;20.890;2022-12-16T10:38:40;83.43;;;29.80;;
19358;SDS011;9815;52.334;20.890;2022-12-16T10:41:31;82.40;;;26.93;;
19358;SDS011;9815;52.334;20.890;2022-12-16T10:44:22;95.03;;;34.23;;
19358;SDS011;9815;52.334;20.890;2022-12-16T10:47:11;83.87;;;28.27;;
19358;SDS011;9815;52.334;20.890;2022-12-16T10:49:57;82.37;;;31.17;;
19358;SDS011;9815;52.334;20.890;2022-12-16T10:52:48;87.20;;;27.57;;
19358;SDS011;9815;52.334;20.890;2022-12-16T10:55:41;81.73;;;28.40;;
19358;SDS011;9815;52.334;20.890;2022-12-16T10:58:38;80.43;;;28.83;;
19358;SDS011;9815;52.334;20.890;2022-12-16T11:01:29;82.67;;;28.87;;
19358;SDS011;9815;52.334;20.890;2022-12-16T11:04:33;68.50;;;26.80;;
19358;SDS011;9815;52.334;20.890;2022-12-16T11:07:25;93.70;;;30.77;;
19358;SDS011;9815;52.334;20.890;2022-12-16T11:10:27;85.90;;;29.70;;
19358;SDS011;9815;52.334;20.890;2022-12-16T11:13:22;93.23;;;34.07;;
19358;SDS011;9815;52.334;20.890;2022-12-16T11:16:11;99.47;;;34.30;;
19358;SDS011;9815;52.334;20.890;2022-12-16T11:18:59;89.70;;;30.30;;
19358;SDS011;9815;52.334;20.890;2022-12-16T11:21:46;88.70;;;30.43;;
19358;SDS011;9815;52.334;20.890;2022-12-16T11:24:32;87.10;;;30.17;;
19358;SDS011;9815;52.334;20.890;2022-12-16T11:27:22;81.20;;;29.17;;
19358;SDS011;9815;52.334;20.890;2022-12-16T11:30:14;70.20;;;26.20;;
19358;SDS011;9815;52.334;20.890;2022-12-16T11:33:03;76.20;;;27.27;;
19358;SDS011;9815;52.334;20.890;2022-12-16T11:36:08;86.43;;;29.33;;
19358;SDS011;9815;52.334;20.890;2022-12-16T11:38:59;83.07;;;28.47;;
19358;SDS011;9815;52.334;20.890;2022-12-16T11:41:46;79.53;;;29.00;;
19358;SDS011;9815;52.334;20.890;2022-12-16T11:44:34;84.60;;;27.97;;
19358;SDS011;9815;52.334;20.890;2022-12-16T11:47:30;74.27;;;27.33;;
19358;SDS011;9815;52.334;20.890;2022-12-16T11:50:21;92.10;;;31.27;;
19358;SDS011;9815;52.334;20.890;2022-12-16T11:53:21;85.70;;;30.97;;
19358;SDS011;9815;52.334;20.890;2022-12-16T11:56:16;91.77;;;31.53;;
19358;SDS011;9815;52.334;20.890;2022-12-16T11:59:08;76.40;;;29.40;;
19358;SDS011;9815;52.334;20.890;2022-12-16T12:02:07;86.03;;;28.97;;
19358;SDS011;9815;52.334;20.890;2022-12-16T12:04:57;82.03;;;29.27;;
19358;SDS011;9815;52.334;20.890;2022-12-16T12:07:44;90.50;;;30.53;;
19358;SDS011;9815;52.334;20.890;2022-12-16T12:10:43;82.03;;;28.17;;
19358;SDS011;9815;52.334;20.890;2022-12-16T12:13:48;78.23;;;28.60;;
19358;SDS011;9815;52.334;20.890;2022-12-16T12:16:43;79.00;;;28.47;;
19358;SDS011;9815;52.334;20.890;2022-12-16T12:19:41;81.67;;;29.77;;
19358;SDS011;9815;52.334;20.890;2022-12-16T12:22:36;72.03;;;25.90;;
19358;SDS011;9815;52.334;20.890;2022-12-16T12:25:24;82.00;;;28.30;;
19358;SDS011;9815;52.334;20.890;2022-12-16T12:28:20;87.90;;;31.97;;
19358;SDS011;9815;52.334;20.890;2022-12-16T12:31:16;96.40;;;33.07;;
19358;SDS011;9815;52.334;20.890;2022-12-16T12:34:12;81.93;;;31.00;;
19358;SDS011;9815;52.334;20.890;2022-12-16T12:37:07;97.80;;;32.47;;
19358;SDS011;9815;52.334;20.890;2022-12-16T12:40:00;113.10;;;34.93;;
19358;SDS011;9815;52.334;20.890;2022-12-16T12:42:53;85.90;;;30.27;;
19358;SDS011;9815;52.334;20.890;2022-12-16T12:45:55;98.10;;;31.60;;
19358;SDS011;9815;52.334;20.890;2022-12-16T12:48:51;85.33;;;31.03;;
19358;SDS011;9815;52.334;20.890;2022-12-16T12:51:48;88.73;;;30.23;;
19358;SDS011;9815;52.334;20.890;2022-12-16T12:54:41;79.17;;;29.37;;
19358;SDS011;9815;52.334;20.890;2022-12-16T12:57:32;83.30;;;28.90;;
19358;SDS011;9815;52.334;20.890;2022-12-16T13:00:21;82.20;;;27.87;;
19358;SDS011;9815;52.334;20.890;2022-12-16T13:03:11;79.07;;;27.77;;
19358;SDS011;9815;52.334;20.890;2022-12-16T13:06:04;88.43;;;30.63;;
19358;SDS011;9815;52.334;20.890;2022-12-16T13:08:55;73.80;;;26.30;;
19358;SDS011;9815;52.334;20.890;2022-12-16T13:15:02;77.90;;;28.47;;
19358;SDS011;9815;52.334;20.890;2022-12-16T13:24:31;95.60;;;31.03;;
19358;SDS011;9815;52.334;20.890;2022-12-16T13:27:28;85.30;;;29.53;;
19358;SDS011;9815;52.334;20.890;2022-12-16T13:30:32;77.70;;;29.03;;
19358;SDS011;9815;52.334;20.890;2022-12-16T13:33:23;82.30;;;28.73;;
19358;SDS011;9815;52.334;20.890;2022-12-16T13:36:11;83.67;;;28.80;;
19358;SDS011;9815;52.334;20.890;2022-12-16T13:39:03;70.60;;;25.13;;
19358;SDS011;9815;52.334;20.890;2022-12-16T13:42:29;86.93;;;28.10;;
19358;SDS011;9815;52.334;20.890;2022-12-16T13:45:27;76.03;;;26.13;;
19358;SDS011;9815;52.334;20.890;2022-12-16T13:48:26;75.27;;;27.10;;
19358;SDS011;9815;52.334;20.890;2022-12-16T13:54:45;82.30;;;27.47;;
19358;SDS011;9815;52.334;20.890;2022-12-16T13:57:38;83.90;;;27.37;;
19358;SDS011;9815;52.334;20.890;2022-12-16T14:00:32;81.23;;;28.10;;
19358;SDS011;9815;52.334;20.890;2022-12-16T14:03:23;85.47;;;28.67;;
19358;SDS011;9815;52.334;20.890;2022-12-16T14:06:23;74.40;;;27.07;;
19358;SDS011;9815;52.334;20.890;2022-12-16T14:12:14;92.40;;;30.17;;
19358;SDS011;9815;52.334;20.890;2022-12-16T14:15:16;77.67;;;27.90;;
19358;SDS011;9815;52.334;20.890;2022-12-16T14:18:10;81.67;;;28.53;;
19358;SDS011;9815;52.334;20.890;2022-12-16T14:21:10;73.33;;;27.57;;
19358;SDS011;9815;52.334;20.890;2022-12-16T14:24:01;65.27;;;26.03;;
19358;SDS011;9815;52.334;20.890;2022-12-16T14:26:51;77.67;;;26.30;;
19358;SDS011;9815;52.334;20.890;2022-12-16T14:29:37;74.87;;;26.87;;
19358;SDS011;9815;52.334;20.890;2022-12-16T14:32:29;80.30;;;25.80;;
19358;SDS011;9815;52.334;20.890;2022-12-16T14:35:16;73.30;;;27.20;;
19358;SDS011;9815;52.334;20.890;2022-12-16T14:38:11;66.50;;;24.77;;
19358;SDS011;9815;52.334;20.890;2022-12-16T14:41:11;73.90;;;25.90;;
19358;SDS011;9815;52.334;20.890;2022-12-16T14:43:58;79.23;;;27.00;;
19358;SDS011;9815;52.334;20.890;2022-12-16T14:46:58;77.47;;;27.67;;
19358;SDS011;9815;52.334;20.890;2022-12-16T14:49:49;72.50;;;25.53;;
19358;SDS011;9815;52.334;20.890;2022-12-16T14:52:37;75.33;;;26.90;;
19358;SDS011;9815;52.334;20.890;2022-12-16T14:55:26;71.80;;;25.67;;
19358;SDS011;9815;52.334;20.890;2022-12-16T14:58:13;76.77;;;26.57;;
19358;SDS011;9815;52.334;20.890;2022-12-16T15:01:01;71.93;;;24.37;;
19358;SDS011;9815;52.334;20.890;2022-12-16T15:03:56;70.90;;;27.60;;
19358;SDS011;9815;52.334;20.890;2022-12-16T15:06:45;75.13;;;26.53;;
19358;SDS011;9815;52.334;20.890;2022-12-16T15:09:36;93.53;;;28.23;;
19358;SDS011;9815;52.334;20.890;2022-12-16T15:12:26;71.57;;;28.80;;
19358;SDS011;9815;52.334;20.890;2022-12-16T15:15:14;75.93;;;27.77;;
19358;SDS011;9815;52.334;20.890;2022-12-16T15:18:13;81.27;;;28.37;;
19358;SDS011;9815;52.334;20.890;2022-12-16T15:21:02;72.30;;;26.87;;
19358;SDS011;9815;52.334;20.890;2022-12-16T15:23:51;72.67;;;26.10;;
19358;SDS011;9815;52.334;20.890;2022-12-16T15:26:37;70.83;;;23.60;;
19358;SDS011;9815;52.334;20.890;2022-12-16T15:29:27;77.50;;;26.60;;
19358;SDS011;9815;52.334;20.890;2022-12-16T15:32:29;70.50;;;25.23;;
19358;SDS011;9815;52.334;20.890;2022-12-16T15:35:22;79.70;;;25.23;;
19358;SDS011;9815;52.334;20.890;2022-12-16T15:38:10;68.27;;;26.87;;
19358;SDS011;9815;52.334;20.890;2022-12-16T15:41:01;73.83;;;24.83;;
19358;SDS011;9815;52.334;20.890;2022-12-16T15:43:48;82.23;;;28.30;;
19358;SDS011;9815;52.334;20.890;2022-12-16T15:46:34;68.23;;;25.63;;
19358;SDS011;9815;52.334;20.890;2022-12-16T15:49:21;80.93;;;26.43;;
19358;SDS011;9815;52.334;20.890;2022-12-16T15:52:20;69.17;;;25.43;;
19358;SDS011;9815;52.334;20.890;2022-12-16T15:55:24;69.77;;;24.50;;
19358;SDS011;9815;52.334;20.890;2022-12-16T15:58:14;77.60;;;26.40;;
19358;SDS011;9815;52.334;20.890;2022-12-16T16:01:11;81.57;;;30.47;;
19358;SDS011;9815;52.334;20.890;2022-12-16T16:04:00;127.60;;;40.90;;
19358;SDS011;9815;52.334;20.890;2022-12-16T16:06:47;94.90;;;36.10;;
19358;SDS011;9815;52.334;20.890;2022-12-16T16:09:35;184.70;;;56.47;;
19358;SDS011;9815;52.334;20.890;2022-12-16T16:12:22;150.77;;;47.03;;
19358;SDS011;9815;52.334;20.890;2022-12-16T16:15:11;103.87;;;33.37;;
19358;SDS011;9815;52.334;20.890;2022-12-16T16:17:58;110.90;;;38.60;;
19358;SDS011;9815;52.334;20.890;2022-12-16T16:20:46;80.10;;;28.43;;
19358;SDS011;9815;52.334;20.890;2022-12-16T16:23:32;117.50;;;36.33;;
19358;SDS011;9815;52.334;20.890;2022-12-16T16:26:19;98.00;;;33.37;;